Portada
METAR-TAF:

METAR-TAF

Aeroports :

Jizan, Aràbia Saudita

latitud: 16-54N, longitud: 042-35E, altitud: 6 m

Observació

L'informe es va fer fa 1 hora i 38 minuts, a les 16:00 UTC
Vent 6 kt del Oest
Temperatura 27°C
Humitat 74%
Pressió 1011 hPa
Visibilitat 10 km o més
sense núvols per sota de 1500 mi sense presència de cumulonimbus.

METAR: OEGN 051600Z 26006KT CAVOK 27/22 Q1011 NOSIG

Hora: 20:38 (17:38 UTC)

Pronòstic

L'informe es va fer fa 6 hores i 38 minuts, a les 11:00 UTC
Pronòstic vàlid del 05 a les 12 UTC al 06 a les 18 UTC
Vent 10 kt del Oest
Visibilitat: 7000 m
Núvols disperses a una alçada de 3000 ft
Evolucionant progressivament
l' 05 a les 18 UTC al 05 a les 20 UTC
Vent 3 kt amb direcció variable
Evolucionant progressivament
l' 06 a les 08 UTC al 06 a les 10 UTC
Vent 10 kt del Sud-Oest

TAF: OEGN 051100Z 0512/0618 28010KT 7000 SCT030 BECMG 0518/0520 VRB03KT BECMG 0608/0610 23010KT

Observacions i pronòstics meteorològics de més de 4000 aeroports (METAR i TAF).

Les estacions disponibles són els punts grocs i vermells al mapa.

Posi el ratolí al punt desitjat per veure el nom de l'estació.

Feu clic per veure les observacions i els pronòstics meteorològics.

Per canviar el mapa: feu clic els botons verds amb una creu de color negre per apropar; al botó verd amb un guió per allunyar la imatge; o en les fletxes verdes per a mapes adjacents.


METAR-TAF: